CheckWX is a tool to help pilots better visualize weather data.  It is not intended as a substitute for an official pre-flight weather briefing.

05:12:39 UTC

EDDC METAR
Dresden Airport
Dresden, Germany
Current

23 mins ago

EDDC 240450Z 20005KT CAVOK M03/M08 Q1038 NOSIG
Observed
Feb-24 @ 04:50 UTC
Wind
  • 200° at 5 KTS
Visibility
10,000+ meters
Flight Rules
VFR
Cloud Levels
  • Clear skies
Temperature
-3°C / 27°F
Dewpoint
-8°C / 18°F
Humidity
69%
Altimeter
30.65" Hg
Pressure
1037.91 hPa
Previous

53 mins ago

EDDC 240420Z 19004KT CAVOK M03/M08 Q1039
Observed
Feb-24 @ 04:20 UTC
Wind
  • 190° at 4 KTS
Visibility
10,000+ meters
Flight Rules
VFR
Cloud Levels
  • Clear skies
Temperature
-3°C / 27°F
Dewpoint
-8°C / 18°F
Humidity
69%
Altimeter
30.68" Hg
Pressure
1038.91 hPa
Previous

1 hour ago

EDDC 240350Z 15004KT CAVOK M03/M08 Q1039
Observed
Feb-24 @ 03:50 UTC
Wind
  • 150° at 4 KTS
Visibility
10,000+ meters
Flight Rules
VFR
Cloud Levels
  • Clear skies
Temperature
-3°C / 27°F
Dewpoint
-8°C / 18°F
Humidity
69%
Altimeter
30.68" Hg
Pressure
1038.91 hPa